Time;durP1;ratioP1;P1;durP2;ratioP2;P2;SDS_P1;SDS_P2;PMS_P1;PMS_P2;Temp;Humidity;BMP_temperature;BMP_pressure;BME280_temperature;BME280_humidity;BME280_pressure;Samples;Min_cycle;Max_cycle;Signal;HPM_P1;HPM_P2
2022/06/22 00:00:20;;;;;;;23.13;7.45;;;;;;;;;;5025736;28;20090;-44
2022/06/22 00:02:50;;;;;;;23.35;8.00;;;;;;;;;;5027371;28;20551;-49
2022/06/22 00:05:19;;;;;;;31.98;8.85;;;;;;;;;;5028826;28;20391;-46
2022/06/22 00:07:57;;;;;;;23.85;8.00;;;;;;;;;;5034249;28;20022;-48
2022/06/22 00:10:31;;;;;;;29.17;8.68;;;;;;;;;;5028343;28;20032;-44
2022/06/22 00:12:59;;;;;;;21.80;8.20;;;;;;;;;;5025903;28;20044;-48
2022/06/22 00:15:35;;;;;;;25.95;8.55;;;;;;;;;;5024772;28;20540;-46
2022/06/22 00:18:03;;;;;;;25.23;8.48;;;;;;;;;;5031363;28;20052;-50
2022/06/22 00:20:31;;;;;;;26.02;7.65;;;;;;;;;;5025505;28;20541;-44
2022/06/22 00:23:05;;;;;;;27.63;8.27;;;;;;;;;;5034115;28;20051;-49
2022/06/22 00:25:31;;;;;;;23.48;8.45;;;;;;;;;;5026644;28;20025;-47
2022/06/22 00:28:35;;;;;;;31.05;9.15;;;;;;;;;;5028629;28;20040;-47
2022/06/22 00:31:13;;;;;;;22.40;8.23;;;;;;;;;;5024422;28;20443;-44
2022/06/22 00:33:59;;;;;;;29.58;8.65;;;;;;;;;;5038525;28;20037;-44
2022/06/22 00:36:27;;;;;;;20.85;8.60;;;;;;;;;;5032669;28;20025;-48
2022/06/22 00:38:53;;;;;;;24.50;7.68;;;;;;;;;;5031858;28;20116;-45
2022/06/22 00:41:24;;;;;;;19.48;7.20;;;;;;;;;;5033262;28;20124;-43
2022/06/22 00:43:54;;;;;;;24.55;8.65;;;;;;;;;;5031142;28;20036;-47
2022/06/22 00:46:23;;;;;;;30.05;9.07;;;;;;;;;;5030800;28;20041;-43
2022/06/22 00:48:54;;;;;;;20.17;8.10;;;;;;;;;;5031181;28;20171;-46
2022/06/22 00:51:26;;;;;;;27.03;8.10;;;;;;;;;;5030893;28;20037;-44
2022/06/22 00:53:54;;;;;;;;;;;;;;;;;;5025532;28;20040;-42
2022/06/22 00:56:34;;;;;;;30.17;8.20;;;;;;;;;;5031041;28;19916;-43
2022/06/22 00:59:10;;;;;;;20.40;7.78;;;;;;;;;;5034354;28;20032;-44
2022/06/22 01:02:08;;;;;;;23.50;8.18;;;;;;;;;;5029860;28;20782;-44
2022/06/22 01:04:43;;;;;;;22.48;8.75;;;;;;;;;;5033561;28;20117;-45
2022/06/22 01:07:26;;;;;;;24.30;8.85;;;;;;;;;;5038089;28;21697;-43
2022/06/22 01:10:05;;;;;;;21.67;8.35;;;;;;;;;;5030585;28;20037;-44
2022/06/22 01:12:48;;;;;;;26.67;9.27;;;;;;;;;;5033857;28;20030;-42
2022/06/22 01:15:30;;;;;;;26.02;8.98;;;;;;;;;;5030799;28;20036;-44
2022/06/22 01:18:17;;;;;;;23.13;8.98;;;;;;;;;;5031137;28;20034;-44
2022/06/22 01:20:58;;;;;;;21.42;8.60;;;;;;;;;;5032456;28;20030;-44
2022/06/22 01:23:38;;;;;;;20.00;8.52;;;;;;;;;;5033598;28;20394;-44
2022/06/22 01:26:19;;;;;;;25.00;8.68;;;;;;;;;;5033632;28;20691;-43
2022/06/22 01:28:53;;;;;;;21.83;8.38;;;;;;;;;;5031635;28;20048;-43
2022/06/22 01:31:19;;;;;;;27.40;9.15;;;;;;;;;;5031316;28;20530;-43
2022/06/22 01:33:50;;;;;;;26.58;8.02;;;;;;;;;;5031141;28;20036;-43
2022/06/22 01:36:28;;;;;;;21.58;8.73;;;;;;;;;;5034217;28;20029;-44
2022/06/22 01:38:55;;;;;;;22.25;8.52;;;;;;;;;;5031685;28;20045;-44
2022/06/22 01:41:37;;;;;;;26.23;8.40;;;;;;;;;;5032852;28;20030;-44
2022/06/22 01:44:20;;;;;;;25.80;9.18;;;;;;;;;;5037953;28;20533;-47
2022/06/22 01:46:51;;;;;;;21.83;7.60;;;;;;;;;;5034800;28;20043;-44
2022/06/22 01:49:56;;;;;;;21.02;8.95;;;;;;;;;;5029967;28;20033;-44
2022/06/22 01:52:51;;;;;;;20.45;8.52;;;;;;;;;;5013811;28;20030;-44
2022/06/22 01:55:39;;;;;;;21.77;8.10;;;;;;;;;;5010475;28;20056;-43
2022/06/22 01:58:35;;;;;;;21.77;8.98;;;;;;;;;;5012947;28;20137;-43
2022/06/22 02:01:34;;;;;;;22.30;8.45;;;;;;;;;;5027411;28;20046;-43
2022/06/22 02:04:18;;;;;;;21.92;9.25;;;;;;;;;;5001823;28;20048;-44
2022/06/22 02:10:10;;;;;;;17.13;7.53;;;;;;;;;;5007972;28;20498;-44
2022/06/22 02:12:42;;;;;;;22.38;8.10;;;;;;;;;;5006541;28;20037;-44
2022/06/22 02:15:12;;;;;;;;;;;;;;;;;;5012864;28;20030;-45
2022/06/22 02:17:39;;;;;;;19.25;8.35;;;;;;;;;;5007686;28;19960;-43
2022/06/22 02:20:37;;;;;;;22.05;8.10;;;;;;;;;;5015751;28;20446;-43
2022/06/22 02:23:16;;;;;;;23.92;8.20;;;;;;;;;;5012565;28;20045;-45
2022/06/22 02:25:56;;;;;;;21.98;8.63;;;;;;;;;;5012963;28;20029;-47
2022/06/22 02:28:22;;;;;;;20.15;8.10;;;;;;;;;;5009052;28;20069;-43
2022/06/22 02:30:48;;;;;;;21.83;8.30;;;;;;;;;;5028135;28;20057;-43
2022/06/22 02:33:15;;;;;;;25.42;8.98;;;;;;;;;;5032939;28;20033;-45
2022/06/22 02:35:42;;;;;;;22.42;8.73;;;;;;;;;;5034950;28;20040;-46
2022/06/22 02:38:12;;;;;;;20.85;8.93;;;;;;;;;;5032616;28;20033;-44
2022/06/22 02:46:33;;;;;;;18.88;8.07;;;;;;;;;;5002127;28;20120;-43
2022/06/22 02:49:07;;;;;;;26.30;9.02;;;;;;;;;;5004352;28;20475;-44
2022/06/22 02:51:45;;;;;;;20.98;8.63;;;;;;;;;;5004498;28;20124;-43
2022/06/22 02:54:22;;;;;;;16.27;8.38;;;;;;;;;;5003312;28;20049;-43
2022/06/22 02:56:58;;;;;;;26.50;9.02;;;;;;;;;;5003373;28;20041;-44
2022/06/22 02:59:24;;;;;;;14.02;7.57;;;;;;;;;;5003605;28;20053;-43
2022/06/22 03:01:50;;;;;;;23.73;8.43;;;;;;;;;;5004600;28;20057;-45
2022/06/22 03:04:16;;;;;;;17.20;8.40;;;;;;;;;;5003477;28;20022;-43
2022/06/22 03:06:49;;;;;;;21.35;8.35;;;;;;;;;;5003890;28;20104;-44
2022/06/22 03:09:15;;;;;;;16.00;7.90;;;;;;;;;;5001373;28;20084;-43
2022/06/22 03:11:45;;;;;;;19.08;8.10;;;;;;;;;;5002672;28;20036;-45
2022/06/22 03:14:28;;;;;;;21.73;8.82;;;;;;;;;;5003017;28;20113;-44
2022/06/22 03:17:05;;;;;;;17.90;8.32;;;;;;;;;;5005436;28;20076;-43
2022/06/22 03:19:44;;;;;;;23.40;8.25;;;;;;;;;;5018634;28;20041;-44
2022/06/22 03:22:20;;;;;;;21.65;8.52;;;;;;;;;;5028533;28;20033;-45
2022/06/22 03:24:54;;;;;;;17.25;8.35;;;;;;;;;;5027057;28;20032;-43
2022/06/22 03:27:24;;;;;;;19.27;8.82;;;;;;;;;;5028155;28;20089;-43
2022/06/22 03:29:54;;;;;;;17.80;8.50;;;;;;;;;;5032533;28;20167;-45
2022/06/22 03:32:29;;;;;;;15.52;8.48;;;;;;;;;;5031817;28;20037;-43
2022/06/22 03:35:02;;;;;;;21.60;8.23;;;;;;;;;;5030340;28;20037;-44
2022/06/22 03:37:34;;;;;;;21.63;9.52;;;;;;;;;;5032962;28;20036;-44
2022/06/22 03:40:27;;;;;;;23.90;8.80;;;;;;;;;;5033300;28;20037;-44
2022/06/22 03:42:55;;;;;;;22.08;9.27;;;;;;;;;;5025106;28;20486;-43
2022/06/22 03:45:27;;;;;;;22.83;9.98;;;;;;;;;;5037205;28;20037;-44
2022/06/22 03:48:06;;;;;;;28.05;9.35;;;;;;;;;;5031323;28;20022;-43
2022/06/22 03:50:31;;;;;;;15.30;8.82;;;;;;;;;;5029428;28;20037;-43
2022/06/22 03:53:17;;;;;;;21.33;9.23;;;;;;;;;;5036941;28;20389;-43
2022/06/22 03:55:48;;;;;;;26.48;9.38;;;;;;;;;;5026921;28;20042;-43
2022/06/22 03:58:16;;;;;;;23.37;9.13;;;;;;;;;;5031527;28;20505;-43
2022/06/22 04:00:44;;;;;;;22.80;8.88;;;;;;;;;;5027508;28;20029;-43
2022/06/22 04:03:12;;;;;;;17.95;9.23;;;;;;;;;;5028744;28;20556;-43
2022/06/22 04:05:49;;;;;;;14.80;8.25;;;;;;;;;;5029816;28;20029;-43
2022/06/22 04:08:23;;;;;;;15.80;9.70;;;;;;;;;;5037394;28;20079;-43
2022/06/22 04:11:06;;;;;;;20.15;8.73;;;;;;;;;;5033941;28;20037;-42
2022/06/22 04:13:59;;;;;;;18.40;8.60;;;;;;;;;;5037556;28;20020;-43
2022/06/22 04:16:31;;;;;;;21.75;8.25;;;;;;;;;;5030448;28;20033;-43
2022/06/22 04:19:01;;;;;;;16.73;8.65;;;;;;;;;;5032982;28;20083;-43
2022/06/22 04:21:33;;;;;;;14.88;8.35;;;;;;;;;;5030075;28;20061;-44
2022/06/22 04:24:11;;;;;;;17.67;8.73;;;;;;;;;;5036988;28;20708;-46
2022/06/22 04:26:44;;;;;;;19.73;8.30;;;;;;;;;;5030916;28;20030;-43
2022/06/22 04:29:18;;;;;;;27.60;8.88;;;;;;;;;;5032853;28;20037;-42
2022/06/22 04:31:55;;;;;;;16.80;7.88;;;;;;;;;;5037857;28;20782;-44
2022/06/22 04:34:39;;;;;;;18.38;8.18;;;;;;;;;;5034949;28;20036;-43
2022/06/22 04:37:16;;;;;;;17.02;8.98;;;;;;;;;;5033429;28;20498;-43
2022/06/22 04:39:48;;;;;;;12.85;7.78;;;;;;;;;;5028211;28;20060;-43
2022/06/22 04:42:13;;;;;;;;;;;;;;;;;;5033250;28;20039;-43
2022/06/22 04:44:47;;;;;;;13.30;7.60;;;;;;;;;;5028792;28;19921;-42
2022/06/22 04:47:18;;;;;;;15.13;7.82;;;;;;;;;;5036704;28;20079;-43
2022/06/22 04:50:13;;;;;;;24.00;8.60;;;;;;;;;;5035412;28;20111;-47
2022/06/22 04:52:43;;;;;;;20.98;8.35;;;;;;;;;;5034254;28;20037;-43
2022/06/22 04:55:19;;;;;;;14.85;7.80;;;;;;;;;;5031500;28;20040;-44
2022/06/22 04:57:49;;;;;;;12.40;7.47;;;;;;;;;;5032476;28;20440;-43
2022/06/22 05:00:22;;;;;;;11.98;7.00;;;;;;;;;;5032070;28;20033;-43
2022/06/22 05:02:55;;;;;;;11.80;6.57;;;;;;;;;;5033540;28;20546;-43
2022/06/22 05:05:27;;;;;;;13.30;6.95;;;;;;;;;;5036662;28;20452;-43
2022/06/22 05:07:59;;;;;;;14.52;7.57;;;;;;;;;;5031493;28;20025;-44
2022/06/22 05:10:52;;;;;;;11.63;6.72;;;;;;;;;;5029895;28;20029;-43
2022/06/22 05:13:31;;;;;;;12.80;7.60;;;;;;;;;;5028523;28;20040;-43
2022/06/22 05:16:00;;;;;;;12.40;6.53;;;;;;;;;;5028634;28;20117;-43
2022/06/22 05:18:32;;;;;;;12.77;6.38;;;;;;;;;;5032149;28;20021;-43
2022/06/22 05:21:19;;;;;;;13.60;6.57;;;;;;;;;;5026774;28;20038;-42
2022/06/22 05:23:50;;;;;;;13.07;6.63;;;;;;;;;;5035685;28;20033;-43
2022/06/22 05:26:20;;;;;;;13.63;6.55;;;;;;;;;;5036289;28;20243;-43
2022/06/22 05:29:05;;;;;;;15.43;7.00;;;;;;;;;;5017463;28;20383;-43
2022/06/22 05:31:36;;;;;;;12.93;6.28;;;;;;;;;;5025270;28;20397;-42
2022/06/22 05:34:06;;;;;;;9.10;6.47;;;;;;;;;;5032362;28;20044;-44
2022/06/22 05:36:37;;;;;;;12.32;7.18;;;;;;;;;;5022669;28;20168;-43
2022/06/22 05:39:04;;;;;;;9.48;6.40;;;;;;;;;;5020330;28;20033;-44
2022/06/22 05:41:32;;;;;;;10.23;6.05;;;;;;;;;;5025544;28;20034;-43
2022/06/22 05:44:01;;;;;;;16.83;6.15;;;;;;;;;;5010850;28;20029;-42
2022/06/22 05:46:28;;;;;;;12.68;6.30;;;;;;;;;;5010298;28;20493;-42
2022/06/22 05:48:56;;;;;;;10.95;6.15;;;;;;;;;;5031687;28;20413;-43
2022/06/22 05:51:36;;;;;;;9.85;6.07;;;;;;;;;;5028900;28;20067;-43
2022/06/22 05:54:28;;;;;;;11.73;6.20;;;;;;;;;;5008123;28;20036;-45
2022/06/22 05:57:14;;;;;;;15.18;6.75;;;;;;;;;;5017475;28;20033;-42
2022/06/22 05:59:45;;;;;;;8.95;6.18;;;;;;;;;;5017157;28;20178;-43
2022/06/22 06:02:34;;;;;;;11.38;7.15;;;;;;;;;;5011973;28;20037;-43
2022/06/22 06:05:25;;;;;;;9.70;6.65;;;;;;;;;;5026639;28;20037;-43
2022/06/22 06:07:54;;;;;;;12.10;6.47;;;;;;;;;;5032558;28;20131;-42
2022/06/22 06:10:27;;;;;;;13.98;7.05;;;;;;;;;;5028107;28;20041;-45
2022/06/22 06:13:04;;;;;;;14.52;6.03;;;;;;;;;;5030097;28;20502;-43
2022/06/22 06:15:34;;;;;;;8.88;6.47;;;;;;;;;;5027292;28;20374;-42
2022/06/22 06:18:01;;;;;;;11.82;6.35;;;;;;;;;;5028870;28;20367;-42
2022/06/22 06:20:31;;;;;;;15.27;6.07;;;;;;;;;;5030713;28;20136;-42
2022/06/22 06:23:12;;;;;;;12.30;6.90;;;;;;;;;;5030592;28;20026;-45
2022/06/22 06:29:06;;;;;;;12.93;5.88;;;;;;;;;;5030982;28;20127;-43
2022/06/22 06:31:40;;;;;;;10.18;5.90;;;;;;;;;;5024139;28;20602;-43
2022/06/22 06:34:17;;;;;;;12.80;6.20;;;;;;;;;;5027692;28;20570;-43
2022/06/22 06:36:55;;;;;;;10.52;6.03;;;;;;;;;;5022434;28;20088;-43
2022/06/22 06:39:25;;;;;;;12.65;6.18;;;;;;;;;;5026554;28;20061;-43
2022/06/22 06:42:06;;;;;;;11.70;5.82;;;;;;;;;;5026523;28;20080;-43
2022/06/22 06:44:37;;;;;;;14.27;5.80;;;;;;;;;;5029223;28;20048;-43
2022/06/22 06:47:20;;;;;;;17.23;5.88;;;;;;;;;;5025117;28;20049;-43
2022/06/22 06:49:51;;;;;;;15.15;5.95;;;;;;;;;;5019274;28;20036;-42
2022/06/22 06:52:33;;;;;;;8.93;5.60;;;;;;;;;;5021113;28;20038;-43
2022/06/22 06:55:05;;;;;;;12.50;5.93;;;;;;;;;;5018658;28;20500;-42
2022/06/22 06:57:32;;;;;;;10.43;5.88;;;;;;;;;;5021371;28;20065;-43
2022/06/22 07:00:03;;;;;;;15.02;5.97;;;;;;;;;;5021198;28;20025;-44
2022/06/22 07:02:37;;;;;;;18.30;6.30;;;;;;;;;;5013241;28;20040;-45
2022/06/22 07:05:12;;;;;;;8.57;5.85;;;;;;;;;;5030803;28;20643;-44
2022/06/22 07:07:50;;;;;;;16.55;5.47;;;;;;;;;;5018679;28;20041;-43
2022/06/22 07:10:23;;;;;;;18.80;5.13;;;;;;;;;;5015905;28;20060;-42
2022/06/22 07:12:54;;;;;;;14.90;5.80;;;;;;;;;;5018199;28;20083;-47
2022/06/22 07:15:23;;;;;;;23.55;5.45;;;;;;;;;;5024867;28;20029;-43
2022/06/22 07:17:53;;;;;;;22.88;5.88;;;;;;;;;;5028645;28;20071;-43
2022/06/22 07:20:21;;;;;;;15.48;5.68;;;;;;;;;;5032994;28;20032;-43
2022/06/22 07:22:52;;;;;;;21.75;6.40;;;;;;;;;;5019056;28;20056;-43
2022/06/22 07:25:30;;;;;;;18.10;5.45;;;;;;;;;;5021569;28;20029;-48
2022/06/22 07:28:02;;;;;;;24.23;6.45;;;;;;;;;;5023270;28;20037;-46
2022/06/22 07:30:35;;;;;;;23.27;6.45;;;;;;;;;;5025858;28;20437;-43
2022/06/22 07:33:28;;;;;;;19.05;6.10;;;;;;;;;;5028117;28;20053;-48
2022/06/22 07:36:03;;;;;;;17.30;5.97;;;;;;;;;;5024670;28;20029;-44
2022/06/22 07:38:40;;;;;;;20.20;5.80;;;;;;;;;;5025992;28;20037;-43
2022/06/22 07:41:19;;;;;;;19.05;5.75;;;;;;;;;;5032665;28;20034;-44
2022/06/22 07:43:52;;;;;;;31.65;6.22;;;;;;;;;;5029619;28;20026;-43
2022/06/22 07:46:28;;;;;;;27.13;7.05;;;;;;;;;;5024830;28;20025;-43
2022/06/22 07:49:01;;;;;;;22.38;6.20;;;;;;;;;;5026875;28;20440;-43
2022/06/22 07:51:30;;;;;;;28.38;6.57;;;;;;;;;;5025380;28;20082;-45
2022/06/22 07:54:15;;;;;;;22.10;6.05;;;;;;;;;;5020186;28;20025;-43
2022/06/22 07:56:52;;;;;;;19.73;5.43;;;;;;;;;;5025632;28;20159;-43
2022/06/22 07:59:35;;;;;;;24.40;6.50;;;;;;;;;;5027961;28;20047;-44
2022/06/22 08:02:05;;;;;;;31.67;7.22;;;;;;;;;;5023802;28;20045;-45
2022/06/22 08:04:40;;;;;;;25.50;7.03;;;;;;;;;;5027296;28;20021;-44
2022/06/22 08:07:18;;;;;;;25.25;5.47;;;;;;;;;;5030427;28;20206;-43
2022/06/22 08:09:46;;;;;;;23.17;5.85;;;;;;;;;;5027205;28;20038;-43
2022/06/22 08:12:24;;;;;;;19.55;5.82;;;;;;;;;;5027226;28;20640;-45
2022/06/22 08:14:53;;;;;;;28.10;5.57;;;;;;;;;;5025541;28;20026;-44
2022/06/22 08:17:24;;;;;;;29.30;6.38;;;;;;;;;;5027649;28;20075;-46
2022/06/22 08:19:50;;;;;;;29.92;6.47;;;;;;;;;;5029052;28;20014;-43
2022/06/22 08:22:16;;;;;;;22.55;6.40;;;;;;;;;;5031434;28;20433;-45
2022/06/22 08:24:49;;;;;;;28.30;6.43;;;;;;;;;;5025595;28;20018;-43
2022/06/22 08:27:20;;;;;;;36.03;6.93;;;;;;;;;;5024806;28;20490;-45
2022/06/22 08:29:49;;;;;;;23.63;5.90;;;;;;;;;;5026466;28;20171;-44
2022/06/22 08:32:30;;;;;;;25.90;6.07;;;;;;;;;;5033425;28;20048;-43
2022/06/22 08:35:02;;;;;;;19.63;5.47;;;;;;;;;;5033003;28;20119;-45
2022/06/22 08:37:35;;;;;;;20.63;6.15;;;;;;;;;;5017858;28;20065;-43
2022/06/22 08:40:11;;;;;;;22.52;6.05;;;;;;;;;;5028635;28;20035;-44
2022/06/22 08:42:43;;;;;;;30.65;6.38;;;;;;;;;;5026844;28;20832;-43
2022/06/22 08:45:33;;;;;;;26.45;6.55;;;;;;;;;;5026918;28;20025;-43
2022/06/22 08:48:20;;;;;;;30.58;6.28;;;;;;;;;;5028807;28;20048;-43
2022/06/22 08:51:11;;;;;;;30.50;6.75;;;;;;;;;;5028094;28;20034;-46
2022/06/22 08:53:58;;;;;;;41.53;7.63;;;;;;;;;;5026545;28;20048;-43
2022/06/22 08:56:56;;;;;;;35.58;7.25;;;;;;;;;;5037096;28;20036;-43
2022/06/22 08:59:22;;;;;;;33.85;7.35;;;;;;;;;;5054470;28;20504;-43
2022/06/22 09:02:07;;;;;;;35.42;6.75;;;;;;;;;;5053876;28;20040;-43
2022/06/22 09:04:54;;;;;;;33.75;6.75;;;;;;;;;;5050312;28;20034;-44
2022/06/22 09:07:44;;;;;;;35.28;7.07;;;;;;;;;;5050465;28;20040;-44
2022/06/22 09:10:24;;;;;;;33.13;6.55;;;;;;;;;;5045845;28;20545;-44
2022/06/22 09:13:34;;;;;;;35.63;6.75;;;;;;;;;;5050271;28;20040;-43
2022/06/22 09:16:25;;;;;;;37.78;7.57;;;;;;;;;;5049208;28;20121;-43
2022/06/22 09:19:09;;;;;;;36.10;8.15;;;;;;;;;;5050086;28;20036;-46
2022/06/22 09:21:45;;;;;;;44.20;7.40;;;;;;;;;;5046367;28;20052;-43
2022/06/22 09:24:19;;;;;;;37.47;6.57;;;;;;;;;;5053879;28;20040;-43
2022/06/22 09:27:06;;;;;;;32.42;7.10;;;;;;;;;;5054760;28;20029;-44
2022/06/22 09:30:00;;;;;;;33.40;7.25;;;;;;;;;;5051053;28;20044;-45
2022/06/22 09:32:44;;;;;;;40.08;7.40;;;;;;;;;;5053318;28;20032;-49
2022/06/22 09:35:13;;;;;;;41.00;8.10;;;;;;;;;;5050414;28;20374;-43
2022/06/22 09:38:05;;;;;;;41.97;8.32;;;;;;;;;;5028344;28;20029;-48
2022/06/22 09:40:37;;;;;;;36.58;7.75;;;;;;;;;;5032529;28;20490;-47
2022/06/22 09:43:11;;;;;;;38.85;7.90;;;;;;;;;;5023626;28;20028;-45
2022/06/22 09:45:47;;;;;;;45.28;8.63;;;;;;;;;;5026354;28;20045;-43
2022/06/22 09:48:31;;;;;;;54.10;9.32;;;;;;;;;;5032778;28;20108;-44
2022/06/22 09:51:09;;;;;;;37.38;7.65;;;;;;;;;;5025524;28;20042;-45
2022/06/22 09:53:56;;;;;;;45.55;9.15;;;;;;;;;;5026675;28;20046;-43
2022/06/22 09:56:32;;;;;;;41.70;8.60;;;;;;;;;;5028745;28;20052;-44
2022/06/22 09:59:10;;;;;;;32.90;7.03;;;;;;;;;;5029653;28;20114;-43
2022/06/22 10:02:10;;;;;;;40.08;7.55;;;;;;;;;;5029049;28;20251;-43
2022/06/22 10:04:54;;;;;;;35.03;7.97;;;;;;;;;;5018061;28;20596;-44
2022/06/22 10:08:04;;;;;;;52.30;8.10;;;;;;;;;;5025443;28;20110;-43
2022/06/22 10:10:45;;;;;;;41.40;7.97;;;;;;;;;;5017739;28;20428;-45
2022/06/22 10:13:55;;;;;;;47.90;8.27;;;;;;;;;;5026391;28;20071;-43
2022/06/22 10:16:23;;;;;;;34.03;6.65;;;;;;;;;;5029616;28;20044;-50
2022/06/22 10:19:01;;;;;;;33.47;7.72;;;;;;;;;;5033492;28;20086;-44
2022/06/22 10:21:42;;;;;;;35.53;7.28;;;;;;;;;;5018324;28;20060;-44
2022/06/22 10:24:17;;;;;;;34.42;5.65;;;;;;;;;;5025919;28;20037;-45
2022/06/22 10:26:57;;;;;;;49.00;7.03;;;;;;;;;;5011407;28;20034;-48
2022/06/22 10:29:44;;;;;;;39.85;6.72;;;;;;;;;;5014796;28;20045;-43
2022/06/22 10:32:15;;;;;;;39.78;7.57;;;;;;;;;;5013453;28;20130;-44
2022/06/22 10:35:02;;;;;;;39.60;7.43;;;;;;;;;;5013415;28;20526;-44
2022/06/22 10:37:38;;;;;;;40.40;7.78;;;;;;;;;;5009300;28;20060;-43
2022/06/22 10:40:06;;;;;;;39.03;7.25;;;;;;;;;;5026258;28;20045;-43
2022/06/22 10:45:54;;;;;;;31.25;7.15;;;;;;;;;;5019684;28;20083;-43
2022/06/22 10:48:23;;;;;;;30.05;7.20;;;;;;;;;;5020378;28;20056;-43
2022/06/22 10:51:13;;;;;;;38.45;7.53;;;;;;;;;;5023706;28;20112;-43
2022/06/22 10:54:08;;;;;;;34.60;7.03;;;;;;;;;;5011640;28;20034;-45
2022/06/22 10:56:41;;;;;;;34.50;7.40;;;;;;;;;;5013101;28;20123;-43
2022/06/22 10:59:29;;;;;;;31.25;7.78;;;;;;;;;;5012602;28;20504;-43
2022/06/22 11:02:09;;;;;;;39.80;7.43;;;;;;;;;;5019650;28;20077;-43
2022/06/22 11:04:42;;;;;;;41.85;7.53;;;;;;;;;;5014748;28;20041;-42
2022/06/22 11:07:35;;;;;;;44.60;7.82;;;;;;;;;;5015392;28;20375;-47
2022/06/22 11:10:22;;;;;;;36.60;7.88;;;;;;;;;;5013908;28;20038;-43
2022/06/22 11:13:04;;;;;;;32.05;7.80;;;;;;;;;;5016151;28;20064;-43
2022/06/22 11:15:37;;;;;;;40.72;7.65;;;;;;;;;;5010657;28;20538;-44
2022/06/22 11:18:20;;;;;;;38.17;8.02;;;;;;;;;;5014202;28;20038;-45
2022/06/22 11:20:55;;;;;;;42.85;8.75;;;;;;;;;;5020347;28;20075;-44
2022/06/22 11:23:47;;;;;;;38.65;7.20;;;;;;;;;;5032482;28;20409;-46
2022/06/22 11:32:27;;;;;;;38.67;6.75;;;;;;;;;;5029120;28;20047;-45
2022/06/22 11:34:59;;;;;;;50.47;8.27;;;;;;;;;;5021362;28;20497;-45
2022/06/22 11:37:42;;;;;;;36.90;8.35;;;;;;;;;;5015423;28;20027;-46
2022/06/22 11:40:32;;;;;;;34.78;7.78;;;;;;;;;;5013255;28;20613;-44
2022/06/22 11:43:52;;;;;;;38.08;7.28;;;;;;;;;;5017170;28;20029;-46
2022/06/22 11:46:20;;;;;;;33.08;7.45;;;;;;;;;;5018485;28;20025;-43
2022/06/22 11:48:56;;;;;;;46.17;8.20;;;;;;;;;;5022392;28;20038;-43
2022/06/22 11:51:43;;;;;;;40.10;7.60;;;;;;;;;;5024574;28;20029;-43
2022/06/22 11:54:30;;;;;;;42.55;8.10;;;;;;;;;;5024166;28;20041;-44
2022/06/22 11:57:02;;;;;;;30.70;8.05;;;;;;;;;;5027104;28;20032;-44
2022/06/22 11:59:34;;;;;;;42.60;7.40;;;;;;;;;;5025832;28;20044;-43
2022/06/22 12:02:24;;;;;;;39.55;8.13;;;;;;;;;;5021698;28;20121;-44
2022/06/22 12:05:19;;;;;;;33.22;8.55;;;;;;;;;;5024788;28;20041;-44
2022/06/22 12:08:01;;;;;;;41.47;8.20;;;;;;;;;;5014504;28;20076;-43
2022/06/22 12:10:49;;;;;;;38.80;9.18;;;;;;;;;;5016810;28;20041;-49
2022/06/22 12:13:32;;;;;;;36.08;8.02;;;;;;;;;;5013524;28;20068;-44
2022/06/22 12:16:23;;;;;;;39.30;7.97;;;;;;;;;;5015828;28;20656;-43
2022/06/22 12:19:03;;;;;;;;;;;;;;;;;;5018293;28;20836;-45
2022/06/22 12:21:32;;;;;;;40.15;9.32;;;;;;;;;;5013123;28;19940;-45
2022/06/22 12:24:01;;;;;;;39.55;8.90;;;;;;;;;;5019339;28;20029;-44
2022/06/22 12:26:49;;;;;;;30.83;7.97;;;;;;;;;;5019129;28;20451;-43
2022/06/22 12:29:17;;;;;;;39.70;8.13;;;;;;;;;;5036427;28;20108;-45
2022/06/22 12:31:49;;;;;;;38.80;7.75;;;;;;;;;;5024365;28;20411;-43
2022/06/22 12:34:44;;;;;;;39.67;7.93;;;;;;;;;;5030891;28;20028;-43
2022/06/22 12:37:26;;;;;;;41.13;7.18;;;;;;;;;;5027641;28;20064;-44
2022/06/22 12:39:54;;;;;;;;;;;;;;;;;;5023801;28;20039;-46
2022/06/22 12:42:52;;;;;;;37.65;7.97;;;;;;;;;;5020473;28;20411;-45
2022/06/22 12:45:30;;;;;;;54.40;9.13;;;;;;;;;;5017144;28;21021;-43
2022/06/22 12:48:05;;;;;;;42.85;8.48;;;;;;;;;;5028320;28;20430;-46
2022/06/22 12:50:42;;;;;;;36.78;8.63;;;;;;;;;;5028141;28;20033;-45
2022/06/22 12:53:20;;;;;;;45.00;8.57;;;;;;;;;;5038832;28;20037;-43
2022/06/22 12:55:54;;;;;;;40.38;8.70;;;;;;;;;;5023695;28;20076;-44
2022/06/22 12:58:29;;;;;;;31.45;7.93;;;;;;;;;;5018892;28;20112;-43
2022/06/22 13:00:58;;;;;;;38.42;7.90;;;;;;;;;;5021117;28;20064;-43
2022/06/22 13:03:31;;;;;;;43.35;8.52;;;;;;;;;;5027805;28;20042;-44
2022/06/22 13:05:57;;;;;;;46.70;8.48;;;;;;;;;;5027383;28;20068;-43
2022/06/22 13:08:26;;;;;;;37.55;8.57;;;;;;;;;;5018285;28;20120;-45
2022/06/22 13:10:59;;;;;;;43.10;8.25;;;;;;;;;;5034220;28;20033;-43
2022/06/22 13:13:50;;;;;;;42.90;8.45;;;;;;;;;;5022456;28;20033;-44
2022/06/22 13:16:27;;;;;;;47.85;9.10;;;;;;;;;;5027956;28;20537;-46
2022/06/22 13:18:55;;;;;;;40.60;8.52;;;;;;;;;;5022593;28;20033;-44
2022/06/22 13:21:31;;;;;;;41.70;8.80;;;;;;;;;;5027254;28;20161;-44
2022/06/22 13:24:23;;;;;;;46.75;9.90;;;;;;;;;;5016651;28;20030;-43
2022/06/22 13:27:14;;;;;;;33.47;8.23;;;;;;;;;;5024608;28;20498;-45
2022/06/22 13:29:46;;;;;;;50.58;8.02;;;;;;;;;;5022887;28;20185;-43
2022/06/22 13:32:13;;;;;;;43.88;9.05;;;;;;;;;;5029068;28;20129;-43
2022/06/22 13:34:42;;;;;;;47.60;8.68;;;;;;;;;;5023080;28;20025;-43
2022/06/22 13:37:31;;;;;;;48.90;9.73;;;;;;;;;;5023424;28;20037;-43
2022/06/22 13:40:26;;;;;;;51.42;8.70;;;;;;;;;;5015111;28;20048;-46
2022/06/22 13:43:19;;;;;;;40.08;9.13;;;;;;;;;;5025595;28;20021;-44
2022/06/22 13:46:18;;;;;;;48.25;9.02;;;;;;;;;;5031280;28;20083;-43
2022/06/22 13:49:09;;;;;;;39.83;8.70;;;;;;;;;;5029592;28;20033;-46
2022/06/22 13:51:58;;;;;;;43.50;9.80;;;;;;;;;;5028179;28;20033;-44
2022/06/22 13:54:41;;;;;;;45.28;9.65;;;;;;;;;;5030330;28;20108;-44
2022/06/22 13:57:29;;;;;;;46.63;10.20;;;;;;;;;;5026304;28;20041;-44
2022/06/22 14:00:11;;;;;;;40.88;8.85;;;;;;;;;;5020857;28;20056;-43
2022/06/22 14:03:00;;;;;;;51.35;9.32;;;;;;;;;;5026477;28;20120;-46
2022/06/22 14:05:40;;;;;;;51.00;9.35;;;;;;;;;;5012061;28;20779;-43
2022/06/22 14:08:24;;;;;;;47.08;8.85;;;;;;;;;;5023811;28;20034;-44
2022/06/22 14:10:56;;;;;;;44.92;9.02;;;;;;;;;;5032284;28;20033;-43
2022/06/22 14:13:22;;;;;;;51.53;9.50;;;;;;;;;;5023377;28;20029;-45
2022/06/22 14:15:59;;;;;;;45.33;9.23;;;;;;;;;;5014587;28;20068;-43
2022/06/22 14:18:27;;;;;;;42.33;9.00;;;;;;;;;;5015456;28;20029;-45
2022/06/22 14:21:09;;;;;;;50.72;10.40;;;;;;;;;;5017279;28;20030;-44
2022/06/22 14:23:37;;;;;;;52.55;10.27;;;;;;;;;;5018109;28;20037;-44
2022/06/22 14:26:40;;;;;;;39.63;8.38;;;;;;;;;;5033944;28;20104;-45
2022/06/22 14:29:11;;;;;;;44.25;9.45;;;;;;;;;;5028700;28;20045;-43
2022/06/22 14:31:48;;;;;;;49.53;9.82;;;;;;;;;;5012983;28;20742;-44
2022/06/22 14:34:33;;;;;;;37.63;9.30;;;;;;;;;;5013445;28;20053;-45
2022/06/22 14:37:09;;;;;;;42.83;9.15;;;;;;;;;;5012559;28;20495;-49
2022/06/22 14:39:52;;;;;;;38.70;9.20;;;;;;;;;;5014149;28;20120;-43
2022/06/22 14:42:21;;;;;;;57.90;10.88;;;;;;;;;;5014649;28;20033;-44
2022/06/22 14:44:58;;;;;;;44.25;9.13;;;;;;;;;;5016132;28;20395;-47
2022/06/22 14:47:45;;;;;;;65.32;11.43;;;;;;;;;;5012007;28;20037;-45
2022/06/22 14:50:27;;;;;;;54.15;9.02;;;;;;;;;;5014566;28;20116;-45
2022/06/22 14:53:23;;;;;;;53.58;10.77;;;;;;;;;;5019805;28;20745;-45
2022/06/22 14:55:54;;;;;;;62.10;10.27;;;;;;;;;;5032889;28;20491;-43
2022/06/22 14:58:38;;;;;;;40.47;9.35;;;;;;;;;;5023922;28;20033;-43
2022/06/22 15:01:21;;;;;;;45.58;9.55;;;;;;;;;;5024409;28;20546;-44
2022/06/22 15:03:56;;;;;;;57.38;9.60;;;;;;;;;;5026839;28;20044;-46
2022/06/22 15:06:22;;;;;;;59.58;10.32;;;;;;;;;;5022327;28;20029;-46
2022/06/22 15:09:00;;;;;;;45.85;9.27;;;;;;;;;;5028608;28;20041;-46
2022/06/22 15:14:51;;;;;;;58.00;10.50;;;;;;;;;;5027637;28;20505;-44
2022/06/22 15:17:31;;;;;;;48.55;9.23;;;;;;;;;;5030291;28;20123;-47
2022/06/22 15:20:14;;;;;;;46.85;10.05;;;;;;;;;;5033063;28;20030;-48
2022/06/22 15:23:00;;;;;;;51.05;9.75;;;;;;;;;;5030164;28;20025;-44
2022/06/22 15:25:41;;;;;;;36.67;9.00;;;;;;;;;;5030029;28;20033;-43
2022/06/22 15:28:20;;;;;;;44.53;8.95;;;;;;;;;;5026932;28;20371;-44
2022/06/22 15:30:50;;;;;;;59.08;10.02;;;;;;;;;;5025619;28;20040;-46
2022/06/22 15:33:31;;;;;;;58.57;9.83;;;;;;;;;;5029637;28;20033;-43
2022/06/22 15:36:13;;;;;;;52.15;8.90;;;;;;;;;;5025769;28;20036;-45
2022/06/22 15:38:51;;;;;;;49.60;9.13;;;;;;;;;;5029617;28;20022;-46
2022/06/22 15:41:35;;;;;;;49.35;9.38;;;;;;;;;;5030464;28;20634;-47
2022/06/22 15:44:04;;;;;;;51.13;10.05;;;;;;;;;;5033391;28;20474;-43
2022/06/22 15:46:49;;;;;;;69.40;10.07;;;;;;;;;;5032536;28;20409;-44
2022/06/22 15:49:29;;;;;;;54.28;10.43;;;;;;;;;;5022218;28;20072;-49
2022/06/22 15:52:19;;;;;;;60.55;10.57;;;;;;;;;;5028918;28;20033;-43
2022/06/22 15:54:51;;;;;;;45.47;9.53;;;;;;;;;;5021616;28;20069;-46
2022/06/22 15:57:39;;;;;;;48.20;8.48;;;;;;;;;;5022567;28;20029;-45